Mineola, IA

11:00 PM CDT on September 19, 2014 (GMT -0500)
Eppley Airfield | Change Station
CLOSE
Current Station
Airport
Location: Omaha,
Elevation: 981 ft
Nearby Weather Stations

Elev 981 ft 41.31 °N, 95.90 °W | Updated 8 minutes ago

Clear
Clear
75 °F
Feels Like 75 °F
N
17
Wind Variable Wind from South

Today
High -- | Low -- °F
--% Chance of Precip.
Yesterday
High -- | Low -- °F
Precip. -- in
7:07 AM 7:25 PM
Waning Crescent, 15% visible
Pressure 29.79 in
Visibility 10.0 miles
Clouds Few 25000 ft
Dew Point 68 °F
Humidity 79%
Rainfall 0.00 in
Snow Depth Not available.
UV 0 out of 12
Pollen 6.70 out of 12
Air Quality Not available.
Flu Activity Not available.
METAR KOMA 200352Z 18015KT 10SM FEW250 24/20 A2981 RMK AO2 SLP086 T02390200

More Conditions Fewer Conditions

Pressure 29.79 in
Visibility 10.0 miles
Clouds Few 25000 ft
Dew Point 68 °F
Humidity 79%
Rainfall 0.00 in
Snow Depth Not available.
UV 0 out of 12
Pollen 6.70 out of 12
Air Quality Not available.
Flu Activity Not available.
METAR KOMA 200352Z 18015KT 10SM FEW250 24/20 A2981 RMK AO2 SLP086 T02390200

More Conditions Fewer Conditions

10-Day Weather Forecast

Almanac

Astronomy

Sep. 19, 2014 Rise Set
Actual Time 7:07 AM CDT 7:25 PM CDT
Civil Twilight 6:39 AM CDT 7:52 PM CDT
Nautical Twilight 6:07 AM CDT 8:24 PM CDT
Astronomical Twilight 5:34 AM CDT 8:57 PM CDT
Moon 2:51 AM CDT (9/19) 4:56 PM CDT (9/19)
Length of Visible Light 13h 12m
Length of Day
12h 17m
Tomorrow will be 2m 42s shorter.
Waning Crescent, 15% of the Moon is Illuminated
Sep 20
Waning Crescent
Sep 24
New
Oct 1
First Quarter
Oct 8
Full
Oct 15
Last Quarter

Today's Extremes

State Highs State Lows

Community

WunderPhotos

Upload Photos

1,754,777 photos uploaded!

WunderBlogs® & News

Nearby

Snow Depth

Station Depth Elevation
No new snow has been reported.

Earthquake Activity

City Distance Mag. Time & Date
No recent earthquake activity has been reported nearby.
Minimum magnitude displayed is 2.5.

Coastal Water Temperatures

Place Temperature
No Stations Reporting

Nearby Weather Stations